Corpus Christi, TX

9:21 PM CDT on August 04, 2015 (GMT -0500)
Corpus Christi International | Change Station
CLOSE
Current Station
Airport
Location: Corpus Christi,
Elevation: 43 ft
Nearby Weather Stations

Elev 43 ft 27.77 °N, 97.51 °W | Updated 30 minutes ago

Clear
Clear
83 °F
Feels Like 92 °F
N
14
Wind Variable Wind from SE

Today
High -- | Low -- °F
--% Chance of Precip.
Yesterday
High -- | Low -- °F
Precip. -- in
6:54 AM 8:17 PM
Waning Gibbous, 72% visible
Pressure 29.92 in
Visibility 10.0 miles
Clouds Few 1900 ft
Heat Index 92 °F
Dew Point 77 °F
Humidity 82%
Rainfall 0.00 in
Snow Depth Not available.
UV 0 out of 12
Pollen 4.50 out of 12
Ozone Good
Flu Activity Not available.
METAR KCRP 050151Z 14012KT 10SM FEW019 28/25 A2992 RMK AO2 SLP130 T02830250

More Conditions Fewer Conditions

Pressure 29.92 in
Visibility 10.0 miles
Clouds Few 1900 ft
Heat Index 92 °F
Dew Point 77 °F
Humidity 82%
Rainfall 0.00 in
Snow Depth Not available.
UV 0 out of 12
Pollen 4.50 out of 12
Ozone Good
Flu Activity Not available.
METAR KCRP 050151Z 14012KT 10SM FEW019 28/25 A2992 RMK AO2 SLP130 T02830250

More Conditions Fewer Conditions

10-Day Weather Forecast

Almanac

Astronomy

Aug. 04, 2015 Rise Set
Actual Time 6:54 AM CDT 8:17 PM CDT
Civil Twilight 6:29 AM CDT 8:42 PM CDT
Nautical Twilight 5:59 AM CDT 9:12 PM CDT
Astronomical Twilight 5:28 AM CDT 9:43 PM CDT
Moon 11:31 PM CDT (8/4) 11:23 AM CDT (8/4)
Length of Visible Light 14h 13m
Length of Day
13h 22m
Tomorrow will be 1m 16s shorter.
Waning Gibbous, 72% of the Moon is Illuminated
Today
Waning Gibbous
Aug 6
Last Quarter
Aug 14
New
Aug 22
First Quarter
Aug 29
Full

Today's Extremes

State Highs State Lows

Community

WunderPhotos

Upload Photos

1,844,084 photos uploaded!

Nearby

Air Quality

  Air Quality AQ Index Pollutant
Yesterday Good
OZONE
Current Good
OZONE
Tuesday Good
PM10
Tuesday Good
OZONE
Wednesday Good
PM10
Wednesday Good
OZONE
Thursday Good
PM10
Thursday Good
OZONE
Friday Good
PM10
Friday Good
OZONE

Snow Depth

Station Depth Elevation
No new snow has been reported.

Earthquake Activity

City Distance Mag. Time & Date
No recent earthquake activity has been reported nearby.
Minimum magnitude displayed is 2.5.

Coastal Water Temperatures

Place Temperature
Packery Channel, TX 89.1 °F
Port Aransas, TX 87.1 °F
Malaquite Beach (Corpus Christi), TX 87.1 °F

Nearby Weather Stations